createdAt,value
2022-09-11T00:01:35.214Z,100.00
2022-09-11T00:04:03.739Z,100.00
2022-09-11T00:06:31.117Z,100.00
2022-09-11T00:09:05.202Z,100.00
2022-09-11T00:11:39.580Z,100.00
2022-09-11T00:14:06.864Z,100.00
2022-09-11T00:16:39.654Z,100.00
2022-09-11T00:19:11.942Z,100.00
2022-09-11T00:21:39.451Z,100.00
2022-09-11T00:24:08.790Z,100.00
2022-09-11T00:26:36.522Z,100.00
2022-09-11T00:29:04.162Z,100.00
2022-09-11T00:31:32.401Z,100.00
2022-09-11T00:33:59.466Z,100.00
2022-09-11T00:36:35.639Z,100.00
2022-09-11T00:39:03.882Z,100.00
2022-09-11T00:41:44.824Z,100.00
2022-09-11T00:44:17.821Z,100.00
2022-09-11T00:46:53.457Z,100.00
2022-09-11T00:49:33.807Z,100.00
2022-09-11T00:52:19.299Z,100.00
2022-09-11T00:54:54.085Z,100.00
2022-09-11T00:57:27.027Z,100.00
2022-09-11T00:59:58.375Z,100.00
2022-09-11T01:02:28.311Z,100.00
2022-09-11T01:04:57.740Z,100.00
2022-09-11T01:07:28.300Z,100.00
2022-09-11T01:09:55.823Z,100.00
2022-09-11T01:12:39.001Z,100.00
2022-09-11T01:15:30.146Z,100.00
2022-09-11T01:18:22.346Z,100.00
2022-09-11T01:22:00.190Z,100.00
2022-09-11T01:24:43.729Z,100.00
2022-09-11T01:27:42.120Z,100.00
2022-09-11T01:30:26.405Z,100.00
2022-09-11T01:33:28.705Z,100.00
2022-09-11T01:36:10.032Z,100.00
2022-09-11T01:38:58.913Z,100.00
2022-09-11T01:41:52.114Z,100.00
2022-09-11T01:44:27.561Z,100.00
2022-09-11T01:46:55.260Z,100.00
2022-09-11T01:49:35.262Z,100.00
2022-09-11T01:52:09.268Z,100.00
2022-09-11T01:54:44.354Z,100.00
2022-09-11T01:57:27.822Z,100.00
2022-09-11T02:00:02.135Z,100.00
2022-09-11T02:02:40.956Z,100.00
2022-09-11T02:05:15.759Z,100.00
2022-09-11T02:07:55.793Z,100.00
2022-09-11T02:10:39.455Z,100.00
2022-09-11T02:13:15.200Z,100.00
2022-09-11T02:15:54.222Z,100.00
2022-09-11T02:18:35.490Z,100.00
2022-09-11T02:21:02.209Z,100.00
2022-09-11T02:23:29.268Z,100.00
2022-09-11T02:25:56.150Z,100.00
2022-09-11T02:28:23.481Z,100.00
2022-09-11T02:30:50.406Z,100.00
2022-09-11T02:33:37.422Z,100.00
2022-09-11T02:36:29.081Z,100.00
2022-09-11T02:39:23.034Z,100.00
2022-09-11T02:42:12.353Z,100.00
2022-09-11T02:44:47.885Z,100.00
2022-09-11T02:47:45.477Z,100.00
2022-09-11T02:51:05.121Z,100.00
2022-09-11T02:53:47.700Z,100.00
2022-09-11T02:56:28.580Z,100.00
2022-09-11T02:59:03.362Z,100.00
2022-09-11T03:01:31.718Z,100.00
2022-09-11T03:03:59.137Z,100.00
2022-09-11T03:06:28.031Z,100.00
2022-09-11T03:08:55.576Z,100.00
2022-09-11T03:11:22.408Z,100.00
2022-09-11T03:13:49.240Z,100.00
2022-09-11T03:16:16.134Z,100.00
2022-09-11T03:18:42.904Z,100.00
2022-09-11T03:21:11.291Z,100.00
2022-09-11T03:23:38.417Z,100.00
2022-09-11T03:26:05.427Z,100.00
2022-09-11T03:28:32.172Z,100.00
2022-09-11T03:30:59.150Z,100.00
2022-09-11T03:33:25.969Z,100.00
2022-09-11T03:35:52.862Z,100.00
2022-09-11T03:38:20.554Z,100.00
2022-09-11T03:40:47.415Z,100.00
2022-09-11T03:43:16.039Z,100.00
2022-09-11T03:45:44.646Z,100.00
2022-09-11T03:48:11.548Z,100.00
2022-09-11T03:50:38.381Z,100.00
2022-09-11T03:53:05.253Z,100.00
2022-09-11T03:55:32.262Z,100.00
2022-09-11T03:57:59.776Z,100.00
2022-09-11T04:00:26.975Z,100.00
2022-09-11T04:02:55.584Z,100.00
2022-09-11T04:05:26.444Z,100.00
2022-09-11T04:07:55.030Z,100.00
2022-09-11T04:10:22.018Z,100.00
2022-09-11T04:12:49.091Z,100.00
2022-09-11T04:15:16.036Z,100.00
2022-09-11T04:17:42.765Z,100.00
2022-09-11T04:20:10.672Z,100.00
2022-09-11T04:22:38.229Z,100.00
2022-09-11T04:25:07.169Z,100.00
2022-09-11T04:27:34.584Z,100.00
2022-09-11T04:30:01.371Z,100.00
2022-09-11T04:32:29.219Z,100.00
2022-09-11T04:34:56.296Z,100.00
2022-09-11T04:37:23.022Z,100.00
2022-09-11T04:39:49.926Z,100.00
2022-09-11T04:42:16.850Z,100.00
2022-09-11T04:44:43.665Z,100.00
2022-09-11T04:47:10.546Z,100.00
2022-09-11T04:49:37.300Z,100.00
2022-09-11T04:52:06.077Z,100.00
2022-09-11T04:54:36.939Z,100.00
2022-09-11T04:57:04.233Z,100.00
2022-09-11T04:59:31.081Z,100.00
2022-09-11T05:02:00.553Z,100.00
2022-09-11T05:04:27.493Z,100.00
2022-09-11T05:06:54.432Z,100.00
2022-09-11T05:09:22.416Z,100.00
2022-09-11T05:11:50.324Z,100.00
2022-09-11T05:14:18.284Z,100.00
2022-09-11T05:16:45.971Z,100.00
2022-09-11T05:19:12.840Z,100.00
2022-09-11T05:21:39.701Z,100.00
2022-09-11T05:24:06.563Z,100.00
2022-09-11T05:26:37.770Z,100.00
2022-09-11T05:29:14.785Z,100.00
2022-09-11T05:31:42.201Z,100.00
2022-09-11T05:34:09.558Z,100.00
2022-09-11T05:36:36.884Z,100.00
2022-09-11T05:39:04.844Z,100.00
2022-09-11T05:41:31.650Z,100.00
2022-09-11T05:43:59.156Z,100.00
2022-09-11T05:46:26.089Z,100.00
2022-09-11T05:48:53.478Z,100.00
2022-09-11T05:51:21.807Z,100.00
2022-09-11T05:53:56.643Z,100.00
2022-09-11T05:56:25.720Z,100.00
2022-09-11T05:58:52.825Z,100.00
2022-09-11T06:01:23.422Z,100.00
2022-09-11T06:03:50.738Z,100.00
2022-09-11T06:06:21.882Z,100.00
2022-09-11T06:08:50.107Z,100.00
2022-09-11T06:11:19.669Z,100.00
2022-09-11T06:13:47.946Z,100.00
2022-09-11T06:16:22.027Z,100.00
2022-09-11T06:18:51.025Z,100.00
2022-09-11T06:21:21.759Z,100.00
2022-09-11T06:23:50.820Z,100.00
2022-09-11T06:26:22.120Z,100.00
2022-09-11T06:28:50.710Z,100.00
2022-09-11T06:31:21.128Z,100.00
2022-09-11T06:33:48.365Z,100.00
2022-09-11T06:36:25.916Z,100.00
2022-09-11T06:38:55.281Z,100.00
2022-09-11T06:41:24.817Z,100.00
2022-09-11T06:43:55.762Z,100.00
2022-09-11T06:46:25.556Z,100.00
2022-09-11T06:48:53.791Z,100.00
2022-09-11T06:51:23.278Z,100.00
2022-09-11T06:53:58.468Z,100.00
2022-09-11T06:56:26.121Z,100.00
2022-09-11T06:58:53.339Z,100.00
2022-09-11T07:01:22.406Z,100.00
2022-09-11T07:03:54.704Z,100.00
2022-09-11T07:06:26.197Z,100.00
2022-09-11T07:09:00.976Z,100.00
2022-09-11T07:11:32.327Z,100.00
2022-09-11T07:14:01.342Z,100.00
2022-09-11T07:16:28.272Z,100.00
2022-09-11T07:18:55.054Z,100.00
2022-09-11T07:21:25.533Z,100.00
2022-09-11T07:23:56.506Z,100.00
2022-09-11T07:26:27.154Z,100.00
2022-09-11T07:28:55.890Z,100.00
2022-09-11T07:31:29.532Z,100.00
2022-09-11T07:33:57.228Z,100.00
2022-09-11T07:36:33.643Z,100.00
2022-09-11T07:39:01.521Z,100.00
2022-09-11T07:41:29.024Z,100.00
2022-09-11T07:44:03.633Z,100.00
2022-09-11T07:46:31.191Z,100.00
2022-09-11T07:48:58.669Z,100.00
2022-09-11T07:51:26.775Z,100.00
2022-09-11T07:53:57.898Z,100.00
2022-09-11T07:56:26.082Z,99.29
2022-09-11T07:58:55.460Z,98.54
2022-09-11T08:01:26.776Z,96.33
2022-09-11T08:03:58.786Z,94.22
2022-09-11T08:06:29.496Z,92.74
2022-09-11T08:09:01.026Z,91.49
2022-09-11T08:11:31.661Z,88.81
2022-09-11T08:13:58.440Z,88.05
2022-09-11T08:16:28.302Z,86.01
2022-09-11T08:18:55.563Z,85.15
2022-09-11T08:21:26.096Z,84.05
2022-09-11T08:23:52.948Z,82.07
2022-09-11T08:26:26.356Z,83.13
2022-09-11T08:28:55.836Z,83.24
2022-09-11T08:31:26.818Z,81.71
2022-09-11T08:33:57.760Z,81.20
2022-09-11T08:36:25.302Z,79.48
2022-09-11T08:38:53.295Z,78.75
2022-09-11T08:41:41.081Z,76.17
2022-09-11T08:44:23.887Z,76.39
2022-09-11T08:47:10.025Z,76.33
2022-09-11T08:49:43.954Z,79.25
2022-09-11T08:52:16.734Z,79.95
2022-09-11T08:54:47.452Z,78.53
2022-09-11T08:57:57.638Z,79.79
2022-09-11T09:00:39.633Z,77.76
2022-09-11T09:03:39.070Z,76.99
2022-09-11T09:06:41.010Z,72.58
2022-09-11T09:09:49.833Z,70.80
2022-09-11T09:12:45.597Z,71.03
2022-09-11T09:15:31.021Z,70.78
2022-09-11T09:18:08.799Z,71.39
2022-09-11T09:20:45.055Z,72.97
2022-09-11T09:23:21.120Z,74.31
2022-09-11T09:25:53.307Z,75.39
2022-09-11T09:28:45.147Z,76.36
2022-09-11T09:31:20.855Z,77.69
2022-09-11T09:34:02.480Z,78.53
2022-09-11T09:37:20.378Z,79.03
2022-09-11T09:39:48.620Z,79.77
2022-09-11T09:42:50.336Z,79.94
2022-09-11T09:46:04.518Z,80.25
2022-09-11T09:48:39.612Z,77.47
2022-09-11T09:51:14.939Z,73.27
2022-09-11T09:54:02.911Z,69.74
2022-09-11T09:56:37.234Z,66.93
2022-09-11T09:59:32.965Z,65.79
2022-09-11T10:01:59.905Z,64.79
2022-09-11T10:04:32.923Z,66.42
2022-09-11T10:07:14.158Z,64.88
2022-09-11T10:09:52.606Z,63.47
2022-09-11T10:12:27.915Z,61.29
2022-09-11T10:15:03.193Z,60.01
2022-09-11T10:17:30.279Z,58.53
2022-09-11T10:20:26.769Z,60.86
2022-09-11T10:22:55.643Z,63.77
2022-09-11T10:25:27.707Z,64.03
2022-09-11T10:28:15.022Z,63.85
2022-09-11T10:31:02.421Z,60.45
2022-09-11T10:33:39.827Z,60.84
2022-09-11T10:36:10.076Z,61.28
2022-09-11T10:38:44.807Z,60.04
2022-09-11T10:41:21.687Z,58.34
2022-09-11T10:44:02.166Z,56.28
2022-09-11T10:46:38.608Z,53.81
2022-09-11T10:49:05.385Z,55.41
2022-09-11T10:51:41.344Z,57.19
2022-09-11T10:54:39.767Z,59.16
2022-09-11T10:57:24.503Z,60.41
2022-09-11T11:00:02.497Z,60.63
2022-09-11T11:02:45.546Z,60.13
2022-09-11T11:05:30.173Z,58.97
2022-09-11T11:08:28.599Z,56.00
2022-09-11T11:11:35.250Z,56.95
2022-09-11T11:14:23.481Z,57.51
2022-09-11T11:17:23.592Z,58.09
2022-09-11T11:20:08.978Z,56.03
2022-09-11T11:22:59.146Z,53.69
2022-09-11T11:26:20.878Z,52.73
2022-09-11T11:29:14.418Z,54.23
2022-09-11T11:32:15.506Z,54.27
2022-09-11T11:35:12.542Z,55.05
2022-09-11T11:37:48.033Z,55.39
2022-09-11T11:40:31.981Z,55.94
2022-09-11T11:43:18.478Z,56.79
2022-09-11T11:45:53.634Z,57.91
2022-09-11T11:48:44.175Z,58.59
2022-09-11T11:51:18.973Z,59.28
2022-09-11T11:54:04.040Z,59.97
2022-09-11T11:56:56.337Z,58.87
2022-09-11T11:59:50.924Z,57.15
2022-09-11T12:02:43.624Z,56.60
2022-09-11T12:05:28.912Z,54.65
2022-09-11T12:07:55.998Z,54.94
2022-09-11T12:10:37.880Z,54.70
2022-09-11T12:13:17.637Z,53.94
2022-09-11T12:16:17.689Z,52.76
2022-09-11T12:19:16.718Z,49.58
2022-09-11T12:21:52.691Z,44.32
2022-09-11T12:24:44.886Z,43.38
2022-09-11T12:27:33.711Z,44.04
2022-09-11T12:30:24.190Z,46.64
2022-09-11T12:33:01.144Z,49.66
2022-09-11T12:35:53.540Z,50.91
2022-09-11T12:38:47.830Z,51.07
2022-09-11T12:41:35.927Z,51.47
2022-09-11T12:44:05.039Z,51.41
2022-09-11T12:46:32.010Z,51.47
2022-09-11T12:49:25.999Z,51.46
2022-09-11T12:52:01.210Z,52.36
2022-09-11T12:54:33.657Z,51.93
2022-09-11T12:57:22.003Z,52.39
2022-09-11T12:59:59.428Z,52.95
2022-09-11T13:02:36.535Z,53.08
2022-09-11T13:05:15.847Z,55.20
2022-09-11T13:07:50.777Z,55.86
2022-09-11T13:10:47.059Z,57.07
2022-09-11T13:13:35.753Z,57.06
2022-09-11T13:16:31.094Z,57.03
2022-09-11T13:19:13.645Z,57.08
2022-09-11T13:21:41.960Z,57.59
2022-09-11T13:24:32.275Z,57.78
2022-09-11T13:27:28.135Z,57.66
2022-09-11T13:29:58.045Z,57.42
2022-09-11T13:32:25.460Z,55.72
2022-09-11T13:35:01.771Z,54.05
2022-09-11T13:37:49.940Z,52.89
2022-09-11T13:41:16.705Z,50.02
2022-09-11T13:43:50.545Z,48.81
2022-09-11T13:46:23.509Z,45.41
2022-09-11T13:48:57.801Z,42.95
2022-09-11T13:51:31.368Z,42.33
2022-09-11T13:54:14.861Z,44.15
2022-09-11T13:57:12.289Z,46.60
2022-09-11T13:59:56.706Z,48.07
2022-09-11T14:02:51.310Z,49.42
2022-09-11T14:05:27.100Z,50.79
2022-09-11T14:08:04.858Z,50.87
2022-09-11T14:10:37.429Z,50.67
2022-09-11T14:13:27.721Z,50.86
2022-09-11T14:16:01.449Z,51.21
2022-09-11T14:18:55.531Z,51.61
2022-09-11T14:21:30.849Z,51.87
2022-09-11T14:23:58.920Z,49.09
2022-09-11T14:26:43.238Z,47.29
2022-09-11T14:29:28.594Z,47.03
2022-09-11T14:35:09.162Z,48.24
2022-09-11T14:37:43.915Z,46.65
2022-09-11T14:40:19.606Z,46.28
2022-09-11T14:42:47.728Z,46.82
2022-09-11T14:45:25.874Z,46.06
2022-09-11T14:47:53.669Z,48.43
2022-09-11T14:50:21.263Z,50.56
2022-09-11T14:52:48.072Z,51.50
2022-09-11T14:55:18.493Z,52.69
2022-09-11T14:57:46.797Z,53.44
2022-09-11T15:00:17.660Z,53.58
2022-09-11T15:02:45.069Z,53.55
2022-09-11T15:05:25.156Z,53.79
2022-09-11T15:07:53.022Z,53.85
2022-09-11T15:10:20.300Z,53.80
2022-09-11T15:12:49.003Z,53.19
2022-09-11T15:15:15.921Z,53.52
2022-09-11T15:17:42.661Z,53.47
2022-09-11T15:20:10.230Z,53.39
2022-09-11T15:22:38.819Z,53.69
2022-09-11T15:25:06.798Z,53.33
2022-09-11T15:27:34.093Z,53.12
2022-09-11T15:30:01.149Z,53.46
2022-09-11T15:32:28.721Z,53.13
2022-09-11T15:34:55.539Z,53.22
2022-09-11T15:37:23.673Z,53.51
2022-09-11T15:39:51.188Z,53.67
2022-09-11T15:42:18.901Z,53.49
2022-09-11T15:44:46.136Z,54.29
2022-09-11T15:47:13.709Z,54.42
2022-09-11T15:49:42.502Z,54.53
2022-09-11T15:52:09.296Z,54.46
2022-09-11T15:54:36.143Z,55.23
2022-09-11T15:57:03.441Z,55.55
2022-09-11T15:59:30.278Z,55.60
2022-09-11T16:02:01.650Z,55.98
2022-09-11T16:04:32.086Z,55.83
2022-09-11T16:06:59.518Z,55.67
2022-09-11T16:09:29.911Z,55.04
2022-09-11T16:11:57.317Z,55.12
2022-09-11T16:14:28.598Z,55.35
2022-09-11T16:16:58.227Z,55.70
2022-09-11T16:19:28.001Z,55.72
2022-09-11T16:21:58.668Z,56.02
2022-09-11T16:24:29.212Z,56.39
2022-09-11T16:26:56.385Z,56.85
2022-09-11T16:29:44.045Z,57.55
2022-09-11T16:32:27.765Z,58.17
2022-09-11T16:34:56.901Z,58.07
2022-09-11T16:37:24.229Z,58.81
2022-09-11T16:39:51.114Z,58.95
2022-09-11T16:42:21.034Z,59.00
2022-09-11T16:44:49.439Z,58.28
2022-09-11T16:47:17.343Z,59.03
2022-09-11T16:50:06.063Z,59.52
2022-09-11T16:52:32.086Z,59.89
2022-09-11T16:54:59.390Z,59.96
2022-09-11T16:57:27.295Z,60.36
2022-09-11T16:59:54.326Z,60.51
2022-09-11T17:02:21.153Z,61.07
2022-09-11T17:04:48.147Z,60.90
2022-09-11T17:07:15.121Z,60.91
2022-09-11T17:09:43.402Z,61.25
2022-09-11T17:12:13.074Z,61.70
2022-09-11T17:14:39.955Z,62.03
2022-09-11T17:17:06.905Z,62.61
2022-09-11T17:19:33.736Z,62.48
2022-09-11T17:22:01.860Z,63.42
2022-09-11T17:24:28.761Z,65.21
2022-09-11T17:26:56.310Z,66.70
2022-09-11T17:29:23.633Z,67.45
2022-09-11T17:32:01.125Z,68.28
2022-09-11T17:34:37.349Z,69.47
2022-09-11T17:37:04.644Z,70.45
2022-09-11T17:39:31.463Z,71.27
2022-09-11T17:41:58.460Z,72.05
2022-09-11T17:44:25.332Z,73.72
2022-09-11T17:46:52.185Z,75.53
2022-09-11T17:49:20.942Z,76.24
2022-09-11T17:51:48.939Z,76.94
2022-09-11T17:54:16.794Z,77.77
2022-09-11T17:56:43.633Z,78.32
2022-09-11T17:59:10.470Z,79.27
2022-09-11T18:01:37.708Z,80.98
2022-09-11T18:04:05.581Z,82.34
2022-09-11T18:06:36.514Z,84.56
2022-09-11T18:09:19.425Z,85.92
2022-09-11T18:11:50.322Z,86.43
2022-09-11T18:14:18.780Z,85.71
2022-09-11T18:16:47.680Z,85.62
2022-09-11T18:19:20.105Z,86.10
2022-09-11T18:21:50.534Z,86.90
2022-09-11T18:24:20.682Z,87.39
2022-09-11T18:26:57.285Z,88.40
2022-09-11T18:29:27.007Z,88.92
2022-09-11T18:31:54.538Z,90.05
2022-09-11T18:34:26.130Z,90.61
2022-09-11T18:36:53.121Z,91.64
2022-09-11T18:39:21.254Z,92.44
2022-09-11T18:41:49.841Z,93.35
2022-09-11T18:44:20.471Z,93.75
2022-09-11T18:46:51.670Z,93.53
2022-09-11T18:49:18.537Z,93.53
2022-09-11T18:51:45.458Z,93.21
2022-09-11T18:54:20.022Z,93.66
2022-09-11T18:56:49.148Z,94.28
2022-09-11T18:59:16.419Z,94.76
2022-09-11T19:01:43.809Z,95.83
2022-09-11T19:04:12.877Z,96.09
2022-09-11T19:06:40.340Z,95.97
2022-09-11T19:09:10.524Z,96.42
2022-09-11T19:11:38.586Z,96.60
2022-09-11T19:14:09.215Z,97.28
2022-09-11T19:16:36.580Z,97.54
2022-09-11T19:19:04.400Z,97.11
2022-09-11T19:21:34.676Z,96.29
2022-09-11T19:24:01.927Z,97.20
2022-09-11T19:26:40.050Z,97.10
2022-09-11T19:29:12.631Z,96.71
2022-09-11T19:31:40.389Z,97.16
2022-09-11T19:34:11.774Z,97.58
2022-09-11T19:36:39.447Z,98.28
2022-09-11T19:39:06.772Z,99.04
2022-09-11T19:41:39.566Z,99.16
2022-09-11T19:44:07.929Z,98.54
2022-09-11T19:46:38.107Z,98.41
2022-09-11T19:49:06.607Z,98.28
2022-09-11T19:51:38.611Z,97.78
2022-09-11T19:54:05.769Z,97.96
2022-09-11T19:56:37.067Z,98.43
2022-09-11T19:59:06.446Z,99.22
2022-09-11T20:01:34.264Z,98.39
2022-09-11T20:04:01.976Z,98.21
2022-09-11T20:06:32.046Z,98.50
2022-09-11T20:09:27.361Z,98.61
2022-09-11T20:11:47.234Z,99.29
2022-09-11T20:14:14.242Z,98.63
2022-09-11T20:16:41.584Z,98.43
2022-09-11T20:19:10.232Z,97.69
2022-09-11T20:21:37.973Z,98.66
2022-09-11T20:24:06.346Z,99.42
2022-09-11T20:26:35.457Z,99.93
2022-09-11T20:29:07.250Z,99.72
2022-09-11T20:31:48.815Z,99.33
2022-09-11T20:34:17.857Z,98.77
2022-09-11T20:36:45.756Z,98.87
2022-09-11T20:39:14.119Z,99.17
2022-09-11T20:41:41.445Z,99.79
2022-09-11T20:44:08.354Z,100.00
2022-09-11T20:46:35.145Z,100.00
2022-09-11T20:49:03.059Z,100.00
2022-09-11T20:51:29.929Z,100.00
2022-09-11T20:53:57.037Z,100.00
2022-09-11T20:56:24.095Z,100.00
2022-09-11T20:58:52.114Z,100.00
2022-09-11T21:01:24.145Z,100.00
2022-09-11T21:03:56.789Z,100.00
2022-09-11T21:06:29.035Z,100.00
2022-09-11T21:09:07.564Z,100.00
2022-09-11T21:11:35.975Z,100.00
2022-09-11T21:14:03.252Z,100.00
2022-09-11T21:16:30.327Z,100.00
2022-09-11T21:19:00.105Z,100.00
2022-09-11T21:21:29.183Z,100.00
2022-09-11T21:24:05.010Z,100.00
2022-09-11T21:26:33.742Z,100.00
2022-09-11T21:29:05.568Z,100.00
2022-09-11T21:31:33.567Z,100.00
2022-09-11T21:34:01.445Z,100.00
2022-09-11T21:36:29.374Z,100.00
2022-09-11T21:38:56.185Z,100.00
2022-09-11T21:41:23.023Z,100.00
2022-09-11T21:43:49.912Z,100.00
2022-09-11T21:46:16.777Z,100.00
2022-09-11T21:48:43.547Z,100.00
2022-09-11T21:51:17.453Z,100.00
2022-09-11T21:53:46.961Z,100.00
2022-09-11T21:56:20.594Z,100.00
2022-09-11T21:58:48.941Z,100.00
2022-09-11T22:01:15.800Z,100.00
2022-09-11T22:03:42.628Z,100.00
2022-09-11T22:06:11.554Z,100.00
2022-09-11T22:08:41.103Z,100.00
2022-09-11T22:11:08.557Z,100.00
2022-09-11T22:13:36.536Z,100.00
2022-09-11T22:16:10.879Z,100.00
2022-09-11T22:18:40.009Z,100.00
2022-09-11T22:21:08.236Z,100.00
2022-09-11T22:23:35.215Z,100.00
2022-09-11T22:26:16.342Z,100.00
2022-09-11T22:28:43.825Z,100.00
2022-09-11T22:31:16.449Z,100.00
2022-09-11T22:33:43.594Z,100.00
2022-09-11T22:36:16.211Z,100.00
2022-09-11T22:38:43.026Z,100.00
2022-09-11T22:41:10.243Z,100.00
2022-09-11T22:43:37.737Z,100.00
2022-09-11T22:46:05.605Z,100.00
2022-09-11T22:48:33.231Z,100.00
2022-09-11T22:51:00.588Z,100.00
2022-09-11T22:53:28.646Z,100.00
2022-09-11T22:55:56.052Z,100.00
2022-09-11T22:58:24.416Z,100.00
2022-09-11T23:00:55.386Z,100.00
2022-09-11T23:03:22.974Z,100.00
2022-09-11T23:06:15.396Z,100.00
2022-09-11T23:08:42.777Z,100.00
2022-09-11T23:11:11.129Z,100.00
2022-09-11T23:13:37.920Z,100.00
2022-09-11T23:16:15.242Z,100.00
2022-09-11T23:18:43.089Z,100.00
2022-09-11T23:21:11.385Z,100.00
2022-09-11T23:23:42.526Z,100.00
2022-09-11T23:26:12.303Z,100.00
2022-09-11T23:28:40.162Z,100.00
2022-09-11T23:31:12.972Z,100.00
2022-09-11T23:33:40.201Z,100.00
2022-09-11T23:36:10.002Z,100.00
2022-09-11T23:38:37.229Z,100.00
2022-09-11T23:41:04.962Z,100.00
2022-09-11T23:43:31.740Z,100.00
2022-09-11T23:45:58.641Z,100.00
2022-09-11T23:48:25.675Z,100.00
2022-09-11T23:50:52.645Z,100.00
2022-09-11T23:53:19.492Z,100.00
2022-09-11T23:55:50.505Z,100.00
2022-09-11T23:58:17.826Z,100.00
